sensor_id;sensor_type;location;lat;lon;timestamp;pressure;altitude;pressure_sealevel;temperature;humidity
47104;BME280;32853;52.164;5.400;2023-05-19T00:02:00;102746.94;;;12.43;100.00
47104;BME280;32853;52.164;5.400;2023-05-19T00:04:26;102728.75;;;12.33;100.00
47104;BME280;32853;52.164;5.400;2023-05-19T00:06:52;102725.22;;;12.35;100.00
47104;BME280;32853;52.164;5.400;2023-05-19T00:09:18;102739.03;;;12.45;100.00
47104;BME280;32853;52.164;5.400;2023-05-19T00:11:44;102739.22;;;12.34;100.00
47104;BME280;32853;52.164;5.400;2023-05-19T00:14:10;102731.41;;;12.31;100.00
47104;BME280;32853;52.164;5.400;2023-05-19T00:16:36;102709.63;;;12.26;100.00
47104;BME280;32853;52.164;5.400;2023-05-19T00:19:03;102682.69;;;12.15;100.00
47104;BME280;32853;52.164;5.400;2023-05-19T00:21:30;102719.03;;;12.38;100.00
47104;BME280;32853;52.164;5.400;2023-05-19T00:23:55;102715.44;;;12.43;100.00
47104;BME280;32853;52.164;5.400;2023-05-19T00:26:21;102715.47;;;12.40;100.00
47104;BME280;32853;52.164;5.400;2023-05-19T00:28:47;102687.94;;;12.15;100.00
47104;BME280;32853;52.164;5.400;2023-05-19T00:31:13;102701.13;;;12.12;100.00
47104;BME280;32853;52.164;5.400;2023-05-19T00:33:38;102715.19;;;12.06;100.00
47104;BME280;32853;52.164;5.400;2023-05-19T00:36:04;102716.03;;;12.07;100.00
47104;BME280;32853;52.164;5.400;2023-05-19T00:38:31;102727.03;;;12.32;100.00
47104;BME280;32853;52.164;5.400;2023-05-19T00:40:58;102707.09;;;12.21;100.00
47104;BME280;32853;52.164;5.400;2023-05-19T00:43:24;102688.09;;;12.06;100.00
47104;BME280;32853;52.164;5.400;2023-05-19T00:45:50;102715.16;;;12.08;100.00
47104;BME280;32853;52.164;5.400;2023-05-19T00:48:15;102664.91;;;11.78;100.00
47104;BME280;32853;52.164;5.400;2023-05-19T00:50:41;102698.06;;;11.84;100.00
47104;BME280;32853;52.164;5.400;2023-05-19T00:53:23;102635.66;;;11.49;100.00
47104;BME280;32853;52.164;5.400;2023-05-19T00:55:59;102713.44;;;12.08;100.00
47104;BME280;32853;52.164;5.400;2023-05-19T00:58:25;102714.03;;;11.66;100.00
47104;BME280;32853;52.164;5.400;2023-05-19T01:00:58;102713.13;;;11.68;100.00
47104;BME280;32853;52.164;5.400;2023-05-19T01:03:33;102648.00;;;11.41;100.00
47104;BME280;32853;52.164;5.400;2023-05-19T01:06:31;102712.19;;;11.72;100.00
47104;BME280;32853;52.164;5.400;2023-05-19T01:08:56;102711.34;;;11.70;100.00
47104;BME280;32853;52.164;5.400;2023-05-19T01:11:27;102697.53;;;11.59;100.00
47104;BME280;32853;52.164;5.400;2023-05-19T01:14:00;102708.84;;;11.61;100.00
47104;BME280;32853;52.164;5.400;2023-05-19T01:16:42;102719.38;;;11.58;100.00
47104;BME280;32853;52.164;5.400;2023-05-19T01:19:38;102714.13;;;11.59;100.00
47104;BME280;32853;52.164;5.400;2023-05-19T01:30:53;102664.75;;;11.29;100.00
47104;BME280;32853;52.164;5.400;2023-05-19T01:33:22;102701.34;;;11.35;100.00
47104;BME280;32853;52.164;5.400;2023-05-19T01:35:50;102698.66;;;11.40;100.00
47104;BME280;32853;52.164;5.400;2023-05-19T01:38:19;102654.63;;;11.04;100.00
47104;BME280;32853;52.164;5.400;2023-05-19T01:40:46;102699.81;;;11.19;100.00
47104;BME280;32853;52.164;5.400;2023-05-19T01:43:29;102677.06;;;11.24;100.00
47104;BME280;32853;52.164;5.400;2023-05-19T01:45:55;102681.47;;;11.20;100.00
47104;BME280;32853;52.164;5.400;2023-05-19T01:48:25;102698.78;;;11.30;100.00
47104;BME280;32853;52.164;5.400;2023-05-19T01:50:51;102691.66;;;11.42;100.00
47104;BME280;32853;52.164;5.400;2023-05-19T01:53:32;102700.44;;;11.38;100.00
47104;BME280;32853;52.164;5.400;2023-05-19T01:56:18;102693.56;;;11.32;100.00
47104;BME280;32853;52.164;5.400;2023-05-19T01:58:47;102667.56;;;11.15;100.00
47104;BME280;32853;52.164;5.400;2023-05-19T02:07:26;102677.09;;;11.19;100.00
47104;BME280;32853;52.164;5.400;2023-05-19T02:10:09;102613.13;;;10.75;100.00
47104;BME280;32853;52.164;5.400;2023-05-19T02:12:37;102640.91;;;10.83;100.00
47104;BME280;32853;52.164;5.400;2023-05-19T02:17:34;102636.22;;;11.07;100.00
47104;BME280;32853;52.164;5.400;2023-05-19T02:20:06;102679.88;;;11.10;100.00
47104;BME280;32853;52.164;5.400;2023-05-19T02:22:35;102634.78;;;10.87;100.00
47104;BME280;32853;52.164;5.400;2023-05-19T02:25:00;102672.03;;;11.07;100.00
47104;BME280;32853;52.164;5.400;2023-05-19T02:27:25;102676.44;;;11.03;100.00
47104;BME280;32853;52.164;5.400;2023-05-19T02:29:51;102679.16;;;10.94;100.00
47104;BME280;32853;52.164;5.400;2023-05-19T02:32:17;102678.19;;;11.04;100.00
47104;BME280;32853;52.164;5.400;2023-05-19T02:34:42;102682.47;;;11.10;100.00
47104;BME280;32853;52.164;5.400;2023-05-19T02:37:13;102679.03;;;11.05;100.00
47104;BME280;32853;52.164;5.400;2023-05-19T02:39:43;102617.38;;;10.83;100.00
47104;BME280;32853;52.164;5.400;2023-05-19T02:42:09;102662.56;;;10.98;100.00
47104;BME280;32853;52.164;5.400;2023-05-19T02:44:35;102631.28;;;10.88;100.00
47104;BME280;32853;52.164;5.400;2023-05-19T02:47:01;102665.00;;;11.12;100.00
47104;BME280;32853;52.164;5.400;2023-05-19T02:49:27;102660.00;;;10.92;100.00
47104;BME280;32853;52.164;5.400;2023-05-19T02:51:55;102659.06;;;10.98;100.00
47104;BME280;32853;52.164;5.400;2023-05-19T02:54:21;102618.22;;;10.83;100.00
47104;BME280;32853;52.164;5.400;2023-05-19T02:56:46;102638.31;;;10.81;100.00
47104;BME280;32853;52.164;5.400;2023-05-19T02:59:11;102611.41;;;10.71;100.00
47104;BME280;32853;52.164;5.400;2023-05-19T03:01:36;102658.19;;;10.99;100.00
47104;BME280;32853;52.164;5.400;2023-05-19T03:04:04;102656.66;;;10.81;100.00
47104;BME280;32853;52.164;5.400;2023-05-19T03:06:30;102663.69;;;10.74;100.00
47104;BME280;32853;52.164;5.400;2023-05-19T03:08:57;102599.38;;;10.57;100.00
47104;BME280;32853;52.164;5.400;2023-05-19T03:11:22;102653.25;;;10.71;100.00
47104;BME280;32853;52.164;5.400;2023-05-19T03:13:47;102594.13;;;10.58;100.00
47104;BME280;32853;52.164;5.400;2023-05-19T03:16:13;102643.72;;;10.69;100.00
47104;BME280;32853;52.164;5.400;2023-05-19T03:18:38;102635.88;;;10.67;100.00
47104;BME280;32853;52.164;5.400;2023-05-19T03:21:03;102584.66;;;10.46;100.00
47104;BME280;32853;52.164;5.400;2023-05-19T03:23:30;102652.97;;;10.96;100.00
47104;BME280;32853;52.164;5.400;2023-05-19T03:25:55;102647.84;;;10.88;100.00
47104;BME280;32853;52.164;5.400;2023-05-19T03:28:23;102653.03;;;10.91;100.00
47104;BME280;32853;52.164;5.400;2023-05-19T03:30:51;102647.88;;;10.87;100.00
47104;BME280;32853;52.164;5.400;2023-05-19T03:33:16;102641.59;;;10.97;100.00
47104;BME280;32853;52.164;5.400;2023-05-19T03:35:41;102600.13;;;10.66;100.00
47104;BME280;32853;52.164;5.400;2023-05-19T03:38:08;102646.09;;;10.86;100.00
47104;BME280;32853;52.164;5.400;2023-05-19T03:40:34;102647.88;;;10.84;100.00
47104;BME280;32853;52.164;5.400;2023-05-19T03:42:59;102634.09;;;10.69;100.00
47104;BME280;32853;52.164;5.400;2023-05-19T03:45:25;102633.59;;;10.35;100.00
47104;BME280;32853;52.164;5.400;2023-05-19T03:47:50;102623.72;;;10.65;100.00
47104;BME280;32853;52.164;5.400;2023-05-19T03:50:15;102627.25;;;10.58;100.00
47104;BME280;32853;52.164;5.400;2023-05-19T03:52:42;102637.59;;;10.70;100.00
47104;BME280;32853;52.164;5.400;2023-05-19T03:55:09;102633.38;;;10.58;100.00
47104;BME280;32853;52.164;5.400;2023-05-19T03:57:45;102640.91;;;10.83;100.00
47104;BME280;32853;52.164;5.400;2023-05-19T04:00:29;102637.66;;;10.65;100.00
47104;BME280;32853;52.164;5.400;2023-05-19T04:02:56;102598.78;;;10.32;100.00
47104;BME280;32853;52.164;5.400;2023-05-19T04:05:21;102603.03;;;10.42;100.00
47104;BME280;32853;52.164;5.400;2023-05-19T04:07:46;102636.75;;;10.68;100.00
47104;BME280;32853;52.164;5.400;2023-05-19T04:10:14;102632.56;;;10.50;100.00
47104;BME280;32853;52.164;5.400;2023-05-19T04:12:39;102638.53;;;10.64;100.00
47104;BME280;32853;52.164;5.400;2023-05-19T04:15:05;102636.03;;;10.52;100.00
47104;BME280;32853;52.164;5.400;2023-05-19T04:17:31;102644.75;;;10.53;100.00
47104;BME280;32853;52.164;5.400;2023-05-19T04:19:59;102643.84;;;10.57;100.00
47104;BME280;32853;52.164;5.400;2023-05-19T04:22:25;102616.22;;;10.33;100.00
47104;BME280;32853;52.164;5.400;2023-05-19T04:24:55;102651.66;;;10.60;100.00
47104;BME280;32853;52.164;5.400;2023-05-19T04:27:21;102633.53;;;10.40;100.00
47104;BME280;32853;52.164;5.400;2023-05-19T04:29:46;102651.81;;;10.46;100.00
47104;BME280;32853;52.164;5.400;2023-05-19T04:32:13;102660.28;;;10.68;100.00
47104;BME280;32853;52.164;5.400;2023-05-19T04:34:41;102649.97;;;10.56;100.00
47104;BME280;32853;52.164;5.400;2023-05-19T04:37:18;102649.88;;;10.65;100.00
47104;BME280;32853;52.164;5.400;2023-05-19T04:39:51;102649.81;;;10.69;100.00
47104;BME280;32853;52.164;5.400;2023-05-19T04:42:24;102656.84;;;10.63;100.00
47104;BME280;32853;52.164;5.400;2023-05-19T04:44:58;102646.50;;;10.51;100.00
47104;BME280;32853;52.164;5.400;2023-05-19T04:47:24;102647.47;;;10.45;100.00
47104;BME280;32853;52.164;5.400;2023-05-19T04:49:52;102651.69;;;10.58;100.00
47104;BME280;32853;52.164;5.400;2023-05-19T04:52:19;102616.22;;;10.33;100.00
47104;BME280;32853;52.164;5.400;2023-05-19T04:54:46;102666.44;;;10.64;100.00
47104;BME280;32853;52.164;5.400;2023-05-19T04:57:14;102662.16;;;10.58;100.00
47104;BME280;32853;52.164;5.400;2023-05-19T04:59:40;102666.38;;;10.70;100.00
47104;BME280;32853;52.164;5.400;2023-05-19T05:02:14;102620.59;;;10.29;100.00
47104;BME280;32853;52.164;5.400;2023-05-19T05:04:40;102663.84;;;10.61;100.00
47104;BME280;32853;52.164;5.400;2023-05-19T05:07:08;102668.09;;;10.71;100.00
47104;BME280;32853;52.164;5.400;2023-05-19T05:09:35;102646.47;;;10.57;100.00
47104;BME280;32853;52.164;5.400;2023-05-19T05:12:01;102642.97;;;10.58;100.00
47104;BME280;32853;52.164;5.400;2023-05-19T05:14:30;102619.69;;;10.33;100.00
47104;BME280;32853;52.164;5.400;2023-05-19T05:16:56;102665.56;;;10.66;100.00
47104;BME280;32853;52.164;5.400;2023-05-19T05:19:21;102608.38;;;10.30;100.00
47104;BME280;32853;52.164;5.400;2023-05-19T05:21:51;102650.50;;;10.84;100.00
47104;BME280;32853;52.164;5.400;2023-05-19T05:24:33;102667.00;;;10.90;100.00
47104;BME280;32853;52.164;5.400;2023-05-19T05:26:59;102615.88;;;10.60;100.00
47104;BME280;32853;52.164;5.400;2023-05-19T05:29:25;102641.00;;;10.76;100.00
47104;BME280;32853;52.164;5.400;2023-05-19T05:31:50;102623.66;;;10.68;100.00
47104;BME280;32853;52.164;5.400;2023-05-19T05:34:16;102598.47;;;10.59;100.00
47104;BME280;32853;52.164;5.400;2023-05-19T05:36:43;102649.31;;;11.11;100.00
47104;BME280;32853;52.164;5.400;2023-05-19T05:39:10;102662.44;;;11.09;100.00
47104;BME280;32853;52.164;5.400;2023-05-19T05:41:35;102622.66;;;10.78;100.00
47104;BME280;32853;52.164;5.400;2023-05-19T05:44:01;102662.28;;;11.20;100.00
47104;BME280;32853;52.164;5.400;2023-05-19T05:46:26;102655.31;;;11.17;100.00
47104;BME280;32853;52.164;5.400;2023-05-19T05:48:52;102670.16;;;11.20;100.00
47104;BME280;32853;52.164;5.400;2023-05-19T05:51:20;102622.19;;;11.15;100.00
47104;BME280;32853;52.164;5.400;2023-05-19T05:53:50;102647.25;;;11.34;100.00
47104;BME280;32853;52.164;5.400;2023-05-19T05:56:15;102669.59;;;11.58;100.00
47104;BME280;32853;52.164;5.400;2023-05-19T05:58:41;102656.59;;;11.50;100.00
47104;BME280;32853;52.164;5.400;2023-05-19T06:01:06;102673.66;;;11.80;100.00
47104;BME280;32853;52.164;5.400;2023-05-19T06:03:39;102630.22;;;11.62;100.00
47104;BME280;32853;52.164;5.400;2023-05-19T06:06:05;102668.59;;;11.67;100.00
47104;BME280;32853;52.164;5.400;2023-05-19T06:08:30;102650.66;;;11.98;100.00
47104;BME280;32853;52.164;5.400;2023-05-19T06:10:55;102660.44;;;11.88;100.00
47104;BME280;32853;52.164;5.400;2023-05-19T06:13:22;102678.34;;;12.14;100.00
47104;BME280;32853;52.164;5.400;2023-05-19T06:15:48;102671.31;;;12.16;100.00
47104;BME280;32853;52.164;5.400;2023-05-19T06:18:14;102627.97;;;11.95;100.00
47104;BME280;32853;52.164;5.400;2023-05-19T06:20:39;102670.25;;;12.26;100.00
47104;BME280;32853;52.164;5.400;2023-05-19T06:23:04;102607.81;;;11.99;100.00
47104;BME280;32853;52.164;5.400;2023-05-19T06:25:35;102675.94;;;12.51;100.00
47104;BME280;32853;52.164;5.400;2023-05-19T06:28:00;102632.25;;;12.48;100.00
47104;BME280;32853;52.164;5.400;2023-05-19T06:30:26;102664.97;;;12.75;100.00
47104;BME280;32853;52.164;5.400;2023-05-19T06:32:57;102662.88;;;12.93;100.00
47104;BME280;32853;52.164;5.400;2023-05-19T06:35:29;102654.13;;;12.92;100.00
47104;BME280;32853;52.164;5.400;2023-05-19T06:37:56;102668.59;;;13.12;100.00
47104;BME280;32853;52.164;5.400;2023-05-19T06:40:22;102669.50;;;13.11;100.00
47104;BME280;32853;52.164;5.400;2023-05-19T06:42:47;102675.88;;;12.99;100.00
47104;BME280;32853;52.164;5.400;2023-05-19T06:45:13;102624.69;;;13.17;100.00
47104;BME280;32853;52.164;5.400;2023-05-19T06:47:39;102676.69;;;13.44;100.00
47104;BME280;32853;52.164;5.400;2023-05-19T06:50:07;102668.44;;;13.59;100.00
47104;BME280;32853;52.164;5.400;2023-05-19T06:52:32;102649.66;;;13.37;100.00
47104;BME280;32853;52.164;5.400;2023-05-19T06:54:58;102659.28;;;13.77;100.00
47104;BME280;32853;52.164;5.400;2023-05-19T06:57:24;102653.25;;;14.06;100.00
47104;BME280;32853;52.164;5.400;2023-05-19T06:59:54;102648.00;;;14.08;100.00
47104;BME280;32853;52.164;5.400;2023-05-19T07:02:20;102634.84;;;14.08;100.00
47104;BME280;32853;52.164;5.400;2023-05-19T07:04:45;102674.00;;;14.20;100.00
47104;BME280;32853;52.164;5.400;2023-05-19T07:07:11;102677.44;;;14.56;100.00
47104;BME280;32853;52.164;5.400;2023-05-19T07:09:37;102668.28;;;14.69;100.00
47104;BME280;32853;52.164;5.400;2023-05-19T07:12:02;102664.44;;;14.81;100.00
47104;BME280;32853;52.164;5.400;2023-05-19T07:14:27;102668.03;;;14.78;100.00
47104;BME280;32853;52.164;5.400;2023-05-19T07:16:53;102657.31;;;14.85;100.00
47104;BME280;32853;52.164;5.400;2023-05-19T07:19:18;102655.69;;;14.80;100.00
47104;BME280;32853;52.164;5.400;2023-05-19T07:21:47;102667.88;;;15.14;99.26
47104;BME280;32853;52.164;5.400;2023-05-19T07:24:13;102647.00;;;15.08;96.50
47104;BME280;32853;52.164;5.400;2023-05-19T07:26:42;102660.00;;;15.42;93.85
47104;BME280;32853;52.164;5.400;2023-05-19T07:29:07;102653.88;;;15.69;97.31
47104;BME280;32853;52.164;5.400;2023-05-19T07:31:33;102634.56;;;15.41;90.78
47104;BME280;32853;52.164;5.400;2023-05-19T07:33:58;102665.31;;;15.40;87.50
47104;BME280;32853;52.164;5.400;2023-05-19T07:36:23;102660.47;;;15.83;88.21
47104;BME280;32853;52.164;5.400;2023-05-19T07:38:53;102656.47;;;15.71;86.95
47104;BME280;32853;52.164;5.400;2023-05-19T07:41:18;102673.75;;;16.08;83.94
47104;BME280;32853;52.164;5.400;2023-05-19T07:43:43;102674.06;;;16.23;84.21
47104;BME280;32853;52.164;5.400;2023-05-19T07:46:09;102668.31;;;16.37;80.79
47104;BME280;32853;52.164;5.400;2023-05-19T07:48:34;102668.16;;;16.42;80.75
47104;BME280;32853;52.164;5.400;2023-05-19T07:51:01;102649.38;;;16.49;77.01
47104;BME280;32853;52.164;5.400;2023-05-19T07:53:26;102658.59;;;16.63;76.29
47104;BME280;32853;52.164;5.400;2023-05-19T07:55:52;102658.13;;;16.26;73.93
47104;BME280;32853;52.164;5.400;2023-05-19T07:58:17;102659.16;;;15.96;72.04
47104;BME280;32853;52.164;5.400;2023-05-19T08:00:43;102657.53;;;16.18;74.35
47104;BME280;32853;52.164;5.400;2023-05-19T08:03:13;102630.91;;;16.49;73.24
47104;BME280;32853;52.164;5.400;2023-05-19T08:05:41;102628.28;;;16.24;71.62
47104;BME280;32853;52.164;5.400;2023-05-19T08:08:08;102645.63;;;16.32;71.26
47104;BME280;32853;52.164;5.400;2023-05-19T08:10:34;102595.28;;;16.36;68.06
47104;BME280;32853;52.164;5.400;2023-05-19T08:13:01;102648.47;;;17.22;69.62
47104;BME280;32853;52.164;5.400;2023-05-19T08:15:30;102638.78;;;16.99;67.13
47104;BME280;32853;52.164;5.400;2023-05-19T08:17:55;102619.63;;;16.69;66.44
47104;BME280;32853;52.164;5.400;2023-05-19T08:20:20;102597.34;;;16.51;64.38
47104;BME280;32853;52.164;5.400;2023-05-19T08:22:46;102640.59;;;17.21;65.41
47104;BME280;32853;52.164;5.400;2023-05-19T08:25:12;102617.50;;;17.02;62.45
47104;BME280;32853;52.164;5.400;2023-05-19T08:27:37;102588.78;;;16.93;64.32
47104;BME280;32853;52.164;5.400;2023-05-19T08:30:03;102626.81;;;17.12;62.48
47104;BME280;32853;52.164;5.400;2023-05-19T08:32:28;102629.59;;;17.53;61.45
47104;BME280;32853;52.164;5.400;2023-05-19T08:34:54;102630.47;;;17.32;59.05
47104;BME280;32853;52.164;5.400;2023-05-19T08:37:21;102613.91;;;17.70;61.63
47104;BME280;32853;52.164;5.400;2023-05-19T08:39:48;102614.66;;;17.52;58.11
47104;BME280;32853;52.164;5.400;2023-05-19T08:42:13;102623.63;;;17.48;56.84
47104;BME280;32853;52.164;5.400;2023-05-19T08:44:38;102593.72;;;17.24;55.60
47104;BME280;32853;52.164;5.400;2023-05-19T08:47:06;102613.41;;;17.61;55.51
47104;BME280;32853;52.164;5.400;2023-05-19T08:49:42;102561.47;;;17.80;54.68
47104;BME280;32853;52.164;5.400;2023-05-19T08:52:16;102610.06;;;17.99;53.18
47104;BME280;32853;52.164;5.400;2023-05-19T08:54:51;102608.72;;;18.30;53.02
47104;BME280;32853;52.164;5.400;2023-05-19T08:57:17;102604.47;;;18.46;52.05
47104;BME280;32853;52.164;5.400;2023-05-19T08:59:42;102546.88;;;18.31;52.51
47104;BME280;32853;52.164;5.400;2023-05-19T09:02:10;102590.25;;;18.68;51.73
47104;BME280;32853;52.164;5.400;2023-05-19T09:04:37;102567.50;;;18.62;50.86
47104;BME280;32853;52.164;5.400;2023-05-19T09:07:04;102584.75;;;18.72;49.22
47104;BME280;32853;52.164;5.400;2023-05-19T09:09:31;102532.75;;;18.89;49.83
47104;BME280;32853;52.164;5.400;2023-05-19T09:11:56;102584.47;;;18.78;47.00
47104;BME280;32853;52.164;5.400;2023-05-19T09:14:22;102598.75;;;18.55;47.52
47104;BME280;32853;52.164;5.400;2023-05-19T09:16:47;102551.66;;;18.23;46.23
47104;BME280;32853;52.164;5.400;2023-05-19T09:19:16;102574.97;;;18.54;47.01
47104;BME280;32853;52.164;5.400;2023-05-19T09:21:42;102556.28;;;18.57;46.57
47104;BME280;32853;52.164;5.400;2023-05-19T09:24:09;102600.78;;;18.69;46.28
47104;BME280;32853;52.164;5.400;2023-05-19T09:26:39;102582.66;;;18.40;46.64
47104;BME280;32853;52.164;5.400;2023-05-19T09:29:15;102601.81;;;18.67;46.54
47104;BME280;32853;52.164;5.400;2023-05-19T09:32:07;102590.13;;;18.71;47.09
47104;BME280;32853;52.164;5.400;2023-05-19T09:34:32;102586.47;;;19.11;47.71
47104;BME280;32853;52.164;5.400;2023-05-19T09:36:58;102586.78;;;18.86;46.30
47104;BME280;32853;52.164;5.400;2023-05-19T09:39:25;102543.28;;;18.51;46.56
47104;BME280;32853;52.164;5.400;2023-05-19T09:41:54;102589.03;;;18.94;46.77
47104;BME280;32853;52.164;5.400;2023-05-19T09:44:26;102550.59;;;18.85;46.30
47104;BME280;32853;52.164;5.400;2023-05-19T09:47:01;102533.84;;;18.84;44.91
47104;BME280;32853;52.164;5.400;2023-05-19T09:49:28;102575.25;;;19.59;44.33
47104;BME280;32853;52.164;5.400;2023-05-19T09:54:21;102544.91;;;19.65;44.31
47104;BME280;32853;52.164;5.400;2023-05-19T09:57:01;102542.88;;;19.87;43.91
47104;BME280;32853;52.164;5.400;2023-05-19T09:59:28;102576.84;;;20.48;42.71
47104;BME280;32853;52.164;5.400;2023-05-19T10:02:02;102567.84;;;20.00;43.19
47104;BME280;32853;52.164;5.400;2023-05-19T10:04:30;102585.19;;;19.73;43.00
47104;BME280;32853;52.164;5.400;2023-05-19T10:06:57;102581.97;;;19.84;42.13
47104;BME280;32853;52.164;5.400;2023-05-19T10:09:29;102570.59;;;19.64;42.98
47104;BME280;32853;52.164;5.400;2023-05-19T10:11:56;102574.66;;;19.35;43.68
47104;BME280;32853;52.164;5.400;2023-05-19T10:14:30;102528.84;;;19.49;44.65
47104;BME280;32853;52.164;5.400;2023-05-19T10:16:57;102568.16;;;19.24;44.66
47104;BME280;32853;52.164;5.400;2023-05-19T10:19:26;102563.47;;;19.99;44.88
47104;BME280;32853;52.164;5.400;2023-05-19T10:21:52;102565.22;;;20.34;43.95
47104;BME280;32853;52.164;5.400;2023-05-19T10:24:17;102565.88;;;20.21;42.92
47104;BME280;32853;52.164;5.400;2023-05-19T10:26:54;102565.31;;;20.15;43.56
47104;BME280;32853;52.164;5.400;2023-05-19T10:29:47;102556.97;;;20.38;43.59
47104;BME280;32853;52.164;5.400;2023-05-19T10:32:21;102561.13;;;20.11;44.83
47104;BME280;32853;52.164;5.400;2023-05-19T10:35:15;102548.06;;;20.88;44.49
47104;BME280;32853;52.164;5.400;2023-05-19T10:38:02;102552.16;;;20.94;45.08
47104;BME280;32853;52.164;5.400;2023-05-19T10:40:36;102541.03;;;21.18;43.84
47104;BME280;32853;52.164;5.400;2023-05-19T10:45:40;102494.41;;;21.27;42.11
47104;BME280;32853;52.164;5.400;2023-05-19T10:48:13;102538.69;;;21.12;41.43
47104;BME280;32853;52.164;5.400;2023-05-19T10:50:42;102477.91;;;20.75;41.53
47104;BME280;32853;52.164;5.400;2023-05-19T10:53:16;102534.44;;;20.78;42.43
47104;BME280;32853;52.164;5.400;2023-05-19T10:55:44;102550.03;;;21.32;42.14
47104;BME280;32853;52.164;5.400;2023-05-19T11:01:20;102492.03;;;21.53;42.14
47104;BME280;32853;52.164;5.400;2023-05-19T11:03:53;102538.41;;;21.93;41.59
47104;BME280;32853;52.164;5.400;2023-05-19T11:06:30;102501.38;;;21.74;41.49
47104;BME280;32853;52.164;5.400;2023-05-19T11:09:20;102531.19;;;21.95;41.02
47104;BME280;32853;52.164;5.400;2023-05-19T11:11:53;102529.25;;;21.83;41.04
47104;BME280;32853;52.164;5.400;2023-05-19T11:14:34;102512.41;;;21.82;41.13
47104;BME280;32853;52.164;5.400;2023-05-19T11:17:03;102494.91;;;21.34;40.34
47104;BME280;32853;52.164;5.400;2023-05-19T11:19:35;102512.38;;;21.54;39.85
47104;BME280;32853;52.164;5.400;2023-05-19T11:22:12;102536.19;;;21.41;40.50
47104;BME280;32853;52.164;5.400;2023-05-19T11:24:47;102548.94;;;21.50;40.24
47104;BME280;32853;52.164;5.400;2023-05-19T11:27:37;102526.75;;;21.65;39.41
47104;BME280;32853;52.164;5.400;2023-05-19T11:32:34;102487.41;;;22.42;40.39
47104;BME280;32853;52.164;5.400;2023-05-19T11:35:04;102521.00;;;22.01;37.67
47104;BME280;32853;52.164;5.400;2023-05-19T11:37:37;102506.94;;;22.14;36.86
47104;BME280;32853;52.164;5.400;2023-05-19T11:40:12;102501.06;;;22.23;36.29
47104;BME280;32853;52.164;5.400;2023-05-19T11:42:42;102508.53;;;21.88;36.51
47104;BME280;32853;52.164;5.400;2023-05-19T11:45:10;102514.50;;;22.05;36.93
47104;BME280;32853;52.164;5.400;2023-05-19T11:47:37;102476.50;;;20.83;36.35
47104;BME280;32853;52.164;5.400;2023-05-19T11:50:02;102506.53;;;21.47;37.77
47104;BME280;32853;52.164;5.400;2023-05-19T11:52:30;102508.75;;;22.13;38.65
47104;BME280;32853;52.164;5.400;2023-05-19T11:54:59;102436.91;;;22.12;38.80
47104;BME280;32853;52.164;5.400;2023-05-19T11:57:25;102489.69;;;22.48;39.74
47104;BME280;32853;52.164;5.400;2023-05-19T11:59:55;102487.72;;;22.78;39.08
47104;BME280;32853;52.164;5.400;2023-05-19T12:02:24;102409.25;;;22.68;38.53
47104;BME280;32853;52.164;5.400;2023-05-19T12:04:56;102479.59;;;22.53;39.66
47104;BME280;32853;52.164;5.400;2023-05-19T12:07:23;102503.59;;;22.39;40.54
47104;BME280;32853;52.164;5.400;2023-05-19T12:09:51;102480.00;;;22.32;40.81
47104;BME280;32853;52.164;5.400;2023-05-19T12:12:28;102484.34;;;22.48;41.56
47104;BME280;32853;52.164;5.400;2023-05-19T12:14:53;102488.06;;;22.02;43.30
47104;BME280;32853;52.164;5.400;2023-05-19T12:17:32;102490.53;;;22.48;42.15
47104;BME280;32853;52.164;5.400;2023-05-19T12:20:10;102464.09;;;22.02;42.11
47104;BME280;32853;52.164;5.400;2023-05-19T12:22:36;102432.00;;;20.87;43.65
47104;BME280;32853;52.164;5.400;2023-05-19T12:25:23;102488.94;;;22.03;42.91
47104;BME280;32853;52.164;5.400;2023-05-19T12:27:59;102497.78;;;21.89;43.24
47104;BME280;32853;52.164;5.400;2023-05-19T12:30:28;102467.31;;;21.93;42.17
47104;BME280;32853;52.164;5.400;2023-05-19T12:32:54;102494.75;;;21.95;42.77
47104;BME280;32853;52.164;5.400;2023-05-19T12:35:29;102481.19;;;21.70;41.84
47104;BME280;32853;52.164;5.400;2023-05-19T12:38:01;102485.84;;;21.66;42.35
47104;BME280;32853;52.164;5.400;2023-05-19T12:40:28;102444.53;;;21.31;42.17
47104;BME280;32853;52.164;5.400;2023-05-19T12:42:55;102289.81;;;20.78;41.93
47104;BME280;32853;52.164;5.400;2023-05-19T12:45:23;102456.88;;;21.76;41.62
47104;BME280;32853;52.164;5.400;2023-05-19T12:48:10;102470.47;;;21.86;40.95
47104;BME280;32853;52.164;5.400;2023-05-19T12:50:36;102461.81;;;21.96;41.45
47104;BME280;32853;52.164;5.400;2023-05-19T12:53:14;102428.34;;;21.04;41.37
47104;BME280;32853;52.164;5.400;2023-05-19T12:55:44;102465.00;;;22.17;41.08
47104;BME280;32853;52.164;5.400;2023-05-19T12:58:26;102465.50;;;22.51;39.13
47104;BME280;32853;52.164;5.400;2023-05-19T13:00:52;102467.97;;;22.54;39.83
47104;BME280;32853;52.164;5.400;2023-05-19T13:03:20;102454.56;;;22.27;40.00
47104;BME280;32853;52.164;5.400;2023-05-19T13:05:48;102454.31;;;21.74;39.84
47104;BME280;32853;52.164;5.400;2023-05-19T13:08:20;102412.63;;;21.88;40.24
47104;BME280;32853;52.164;5.400;2023-05-19T13:10:48;102460.22;;;22.22;40.15
47104;BME280;32853;52.164;5.400;2023-05-19T13:13:14;102424.03;;;22.32;39.25
47104;BME280;32853;52.164;5.400;2023-05-19T13:15:43;102363.81;;;22.01;39.60
47104;BME280;32853;52.164;5.400;2023-05-19T13:18:10;102437.09;;;22.64;39.16
47104;BME280;32853;52.164;5.400;2023-05-19T13:20:37;102418.06;;;22.56;39.34
47104;BME280;32853;52.164;5.400;2023-05-19T13:23:04;102450.88;;;22.01;39.20